sensor_id;sensor_type;location;lat;lon;timestamp;P1;durP1;ratioP1;P2;durP2;ratioP2
52618;SDS011;38513;53.234;6.568;2022-12-18T00:01:23;161.63;;;60.37;;
52618;SDS011;38513;53.234;6.568;2022-12-18T00:03:50;159.67;;;61.40;;
52618;SDS011;38513;53.234;6.568;2022-12-18T00:06:16;154.52;;;61.22;;
52618;SDS011;38513;53.234;6.568;2022-12-18T00:08:43;157.75;;;58.80;;
52618;SDS011;38513;53.234;6.568;2022-12-18T00:11:19;167.47;;;62.47;;
52618;SDS011;38513;53.234;6.568;2022-12-18T00:13:46;154.52;;;60.30;;
52618;SDS011;38513;53.234;6.568;2022-12-18T00:16:13;155.50;;;59.55;;
52618;SDS011;38513;53.234;6.568;2022-12-18T00:18:39;150.43;;;58.88;;
52618;SDS011;38513;53.234;6.568;2022-12-18T00:21:07;162.50;;;62.97;;
52618;SDS011;38513;53.234;6.568;2022-12-18T00:23:34;156.20;;;61.23;;
52618;SDS011;38513;53.234;6.568;2022-12-18T00:26:10;161.02;;;60.65;;
52618;SDS011;38513;53.234;6.568;2022-12-18T00:28:36;152.50;;;57.95;;
52618;SDS011;38513;53.234;6.568;2022-12-18T00:31:07;153.40;;;61.28;;
52618;SDS011;38513;53.234;6.568;2022-12-18T00:33:33;154.75;;;57.83;;
52618;SDS011;38513;53.234;6.568;2022-12-18T00:36:03;144.13;;;57.60;;
52618;SDS011;38513;53.234;6.568;2022-12-18T00:38:30;142.15;;;55.55;;
52618;SDS011;38513;53.234;6.568;2022-12-18T00:40:56;137.67;;;55.40;;
52618;SDS011;38513;53.234;6.568;2022-12-18T00:43:22;129.77;;;53.58;;
52618;SDS011;38513;53.234;6.568;2022-12-18T00:45:48;138.83;;;53.43;;
52618;SDS011;38513;53.234;6.568;2022-12-18T00:48:14;133.32;;;53.70;;
52618;SDS011;38513;53.234;6.568;2022-12-18T00:50:41;129.93;;;52.97;;
52618;SDS011;38513;53.234;6.568;2022-12-18T00:53:10;137.55;;;55.13;;
52618;SDS011;38513;53.234;6.568;2022-12-18T00:55:39;135.15;;;55.03;;
52618;SDS011;38513;53.234;6.568;2022-12-18T00:58:06;134.18;;;54.30;;
52618;SDS011;38513;53.234;6.568;2022-12-18T01:00:32;139.07;;;55.08;;
52618;SDS011;38513;53.234;6.568;2022-12-18T01:02:58;139.45;;;54.78;;
52618;SDS011;38513;53.234;6.568;2022-12-18T01:05:25;134.90;;;54.30;;
52618;SDS011;38513;53.234;6.568;2022-12-18T01:07:51;130.77;;;55.05;;
52618;SDS011;38513;53.234;6.568;2022-12-18T01:10:17;133.07;;;55.47;;
52618;SDS011;38513;53.234;6.568;2022-12-18T01:12:43;137.50;;;56.80;;
52618;SDS011;38513;53.234;6.568;2022-12-18T01:15:10;128.90;;;53.22;;
52618;SDS011;38513;53.234;6.568;2022-12-18T01:17:37;131.38;;;53.35;;
52618;SDS011;38513;53.234;6.568;2022-12-18T01:20:03;127.28;;;53.08;;
52618;SDS011;38513;53.234;6.568;2022-12-18T01:22:30;137.52;;;53.70;;
52618;SDS011;38513;53.234;6.568;2022-12-18T01:24:56;135.95;;;52.88;;
52618;SDS011;38513;53.234;6.568;2022-12-18T01:27:22;134.82;;;53.55;;
52618;SDS011;38513;53.234;6.568;2022-12-18T01:29:48;136.63;;;53.45;;
52618;SDS011;38513;53.234;6.568;2022-12-18T01:32:14;135.27;;;55.05;;
52618;SDS011;38513;53.234;6.568;2022-12-18T01:34:41;129.45;;;53.35;;
52618;SDS011;38513;53.234;6.568;2022-12-18T01:37:07;131.05;;;52.90;;
52618;SDS011;38513;53.234;6.568;2022-12-18T01:39:33;137.73;;;54.78;;
52618;SDS011;38513;53.234;6.568;2022-12-18T01:41:59;134.95;;;54.53;;
52618;SDS011;38513;53.234;6.568;2022-12-18T01:47:18;132.15;;;52.30;;
52618;SDS011;38513;53.234;6.568;2022-12-18T01:49:46;131.30;;;53.45;;
52618;SDS011;38513;53.234;6.568;2022-12-18T01:52:12;132.20;;;52.45;;
52618;SDS011;38513;53.234;6.568;2022-12-18T01:54:39;124.95;;;51.45;;
52618;SDS011;38513;53.234;6.568;2022-12-18T01:57:05;126.00;;;51.92;;
52618;SDS011;38513;53.234;6.568;2022-12-18T01:59:31;122.05;;;50.80;;
52618;SDS011;38513;53.234;6.568;2022-12-18T02:01:59;134.23;;;52.15;;
52618;SDS011;38513;53.234;6.568;2022-12-18T02:04:26;129.20;;;51.70;;
52618;SDS011;38513;53.234;6.568;2022-12-18T02:09:40;124.15;;;51.60;;
52618;SDS011;38513;53.234;6.568;2022-12-18T02:14:39;115.07;;;49.45;;
52618;SDS011;38513;53.234;6.568;2022-12-18T02:17:24;119.78;;;50.40;;
52618;SDS011;38513;53.234;6.568;2022-12-18T02:25:06;134.40;;;54.10;;
52618;SDS011;38513;53.234;6.568;2022-12-18T02:27:37;132.15;;;54.30;;
52618;SDS011;38513;53.234;6.568;2022-12-18T02:30:05;130.05;;;52.88;;
52618;SDS011;38513;53.234;6.568;2022-12-18T02:32:33;134.98;;;52.88;;
52618;SDS011;38513;53.234;6.568;2022-12-18T02:35:01;130.27;;;52.97;;
52618;SDS011;38513;53.234;6.568;2022-12-18T02:37:28;136.80;;;54.72;;
52618;SDS011;38513;53.234;6.568;2022-12-18T02:39:55;137.32;;;55.10;;
52618;SDS011;38513;53.234;6.568;2022-12-18T02:42:22;131.13;;;51.53;;
52618;SDS011;38513;53.234;6.568;2022-12-18T02:44:50;137.63;;;54.05;;
52618;SDS011;38513;53.234;6.568;2022-12-18T02:47:18;146.77;;;56.70;;
52618;SDS011;38513;53.234;6.568;2022-12-18T02:59:51;141.55;;;56.05;;
52618;SDS011;38513;53.234;6.568;2022-12-18T03:02:22;145.77;;;53.27;;
52618;SDS011;38513;53.234;6.568;2022-12-18T03:04:58;137.57;;;51.83;;
52618;SDS011;38513;53.234;6.568;2022-12-18T03:07:27;147.80;;;55.72;;
52618;SDS011;38513;53.234;6.568;2022-12-18T03:09:59;142.55;;;55.45;;
52618;SDS011;38513;53.234;6.568;2022-12-18T03:12:33;140.85;;;54.63;;
52618;SDS011;38513;53.234;6.568;2022-12-18T03:17:27;148.82;;;55.97;;
52618;SDS011;38513;53.234;6.568;2022-12-18T03:19:54;145.40;;;55.90;;
52618;SDS011;38513;53.234;6.568;2022-12-18T03:22:22;151.55;;;58.15;;
52618;SDS011;38513;53.234;6.568;2022-12-18T03:24:49;137.03;;;56.30;;
52618;SDS011;38513;53.234;6.568;2022-12-18T03:27:17;143.77;;;53.35;;
52618;SDS011;38513;53.234;6.568;2022-12-18T03:29:45;140.13;;;55.92;;
52618;SDS011;38513;53.234;6.568;2022-12-18T03:32:16;151.55;;;57.63;;
52618;SDS011;38513;53.234;6.568;2022-12-18T03:34:45;144.23;;;57.10;;
52618;SDS011;38513;53.234;6.568;2022-12-18T03:37:13;140.75;;;56.53;;
52618;SDS011;38513;53.234;6.568;2022-12-18T03:39:40;149.43;;;57.35;;
52618;SDS011;38513;53.234;6.568;2022-12-18T03:42:15;143.15;;;55.53;;
52618;SDS011;38513;53.234;6.568;2022-12-18T03:44:45;140.65;;;55.33;;
52618;SDS011;38513;53.234;6.568;2022-12-18T03:47:15;140.50;;;56.65;;
52618;SDS011;38513;53.234;6.568;2022-12-18T03:55:05;141.77;;;56.55;;
52618;SDS011;38513;53.234;6.568;2022-12-18T03:57:32;129.52;;;54.33;;
52618;SDS011;38513;53.234;6.568;2022-12-18T04:00:00;134.85;;;54.22;;
52618;SDS011;38513;53.234;6.568;2022-12-18T04:02:27;130.00;;;54.33;;
52618;SDS011;38513;53.234;6.568;2022-12-18T04:04:55;129.10;;;53.73;;
52618;SDS011;38513;53.234;6.568;2022-12-18T04:07:23;128.80;;;54.42;;
52618;SDS011;38513;53.234;6.568;2022-12-18T04:09:50;131.90;;;54.33;;
52618;SDS011;38513;53.234;6.568;2022-12-18T04:12:18;120.28;;;52.95;;
52618;SDS011;38513;53.234;6.568;2022-12-18T04:14:44;123.00;;;52.42;;
52618;SDS011;38513;53.234;6.568;2022-12-18T04:17:10;118.85;;;51.67;;
52618;SDS011;38513;53.234;6.568;2022-12-18T04:19:36;122.75;;;51.67;;
52618;SDS011;38513;53.234;6.568;2022-12-18T04:22:02;120.18;;;51.50;;
52618;SDS011;38513;53.234;6.568;2022-12-18T04:24:29;120.95;;;50.92;;
52618;SDS011;38513;53.234;6.568;2022-12-18T04:26:55;119.00;;;50.47;;
52618;SDS011;38513;53.234;6.568;2022-12-18T04:29:21;113.35;;;48.28;;
52618;SDS011;38513;53.234;6.568;2022-12-18T04:31:47;118.80;;;49.97;;
52618;SDS011;38513;53.234;6.568;2022-12-18T04:34:13;111.07;;;46.40;;
52618;SDS011;38513;53.234;6.568;2022-12-18T04:36:39;119.47;;;49.72;;
52618;SDS011;38513;53.234;6.568;2022-12-18T04:39:05;116.43;;;50.47;;
52618;SDS011;38513;53.234;6.568;2022-12-18T04:41:31;116.43;;;49.00;;
52618;SDS011;38513;53.234;6.568;2022-12-18T04:43:57;116.70;;;49.40;;
52618;SDS011;38513;53.234;6.568;2022-12-18T04:46:24;116.93;;;49.33;;
52618;SDS011;38513;53.234;6.568;2022-12-18T04:48:50;109.07;;;47.45;;
52618;SDS011;38513;53.234;6.568;2022-12-18T04:51:16;117.07;;;48.60;;
52618;SDS011;38513;53.234;6.568;2022-12-18T04:53:42;111.25;;;49.40;;
52618;SDS011;38513;53.234;6.568;2022-12-18T04:56:09;115.15;;;48.28;;
52618;SDS011;38513;53.234;6.568;2022-12-18T04:58:36;119.50;;;47.95;;
52618;SDS011;38513;53.234;6.568;2022-12-18T05:01:02;111.80;;;47.22;;
52618;SDS011;38513;53.234;6.568;2022-12-18T05:03:29;116.90;;;48.45;;
52618;SDS011;38513;53.234;6.568;2022-12-18T05:05:55;108.72;;;46.85;;
52618;SDS011;38513;53.234;6.568;2022-12-18T05:08:21;112.00;;;47.55;;
52618;SDS011;38513;53.234;6.568;2022-12-18T05:10:47;102.32;;;46.10;;
52618;SDS011;38513;53.234;6.568;2022-12-18T05:13:13;103.80;;;46.67;;
52618;SDS011;38513;53.234;6.568;2022-12-18T05:15:39;105.32;;;45.35;;
52618;SDS011;38513;53.234;6.568;2022-12-18T05:18:06;101.30;;;43.08;;
52618;SDS011;38513;53.234;6.568;2022-12-18T05:20:32;101.15;;;43.03;;
52618;SDS011;38513;53.234;6.568;2022-12-18T05:22:59;96.53;;;43.70;;
52618;SDS011;38513;53.234;6.568;2022-12-18T05:25:25;102.63;;;43.70;;
52618;SDS011;38513;53.234;6.568;2022-12-18T05:27:51;103.18;;;42.47;;
52618;SDS011;38513;53.234;6.568;2022-12-18T05:30:17;98.43;;;42.35;;
52618;SDS011;38513;53.234;6.568;2022-12-18T05:32:43;101.67;;;43.17;;
52618;SDS011;38513;53.234;6.568;2022-12-18T05:35:10;97.70;;;41.73;;
52618;SDS011;38513;53.234;6.568;2022-12-18T05:37:36;101.43;;;42.92;;
52618;SDS011;38513;53.234;6.568;2022-12-18T05:40:03;98.95;;;42.85;;
52618;SDS011;38513;53.234;6.568;2022-12-18T05:42:30;91.88;;;40.00;;
52618;SDS011;38513;53.234;6.568;2022-12-18T05:44:56;92.78;;;41.00;;
52618;SDS011;38513;53.234;6.568;2022-12-18T05:47:22;93.15;;;41.08;;
52618;SDS011;38513;53.234;6.568;2022-12-18T05:49:48;90.10;;;39.60;;
52618;SDS011;38513;53.234;6.568;2022-12-18T05:52:14;86.85;;;39.75;;
52618;SDS011;38513;53.234;6.568;2022-12-18T05:54:40;92.05;;;40.55;;
52618;SDS011;38513;53.234;6.568;2022-12-18T05:57:06;89.95;;;39.00;;
52618;SDS011;38513;53.234;6.568;2022-12-18T05:59:32;90.63;;;39.78;;
52618;SDS011;38513;53.234;6.568;2022-12-18T06:01:59;87.87;;;39.50;;
52618;SDS011;38513;53.234;6.568;2022-12-18T06:04:26;83.32;;;37.78;;
52618;SDS011;38513;53.234;6.568;2022-12-18T06:06:53;87.00;;;38.85;;
52618;SDS011;38513;53.234;6.568;2022-12-18T06:09:19;81.68;;;37.67;;
52618;SDS011;38513;53.234;6.568;2022-12-18T06:11:45;79.13;;;38.95;;
52618;SDS011;38513;53.234;6.568;2022-12-18T06:14:11;86.68;;;39.05;;
52618;SDS011;38513;53.234;6.568;2022-12-18T06:16:37;82.53;;;38.13;;
52618;SDS011;38513;53.234;6.568;2022-12-18T06:19:04;78.20;;;35.22;;
52618;SDS011;38513;53.234;6.568;2022-12-18T06:21:30;76.65;;;37.35;;
52618;SDS011;38513;53.234;6.568;2022-12-18T06:23:58;75.03;;;36.33;;
52618;SDS011;38513;53.234;6.568;2022-12-18T06:26:24;76.88;;;37.10;;
52618;SDS011;38513;53.234;6.568;2022-12-18T06:28:50;74.97;;;36.47;;
52618;SDS011;38513;53.234;6.568;2022-12-18T06:31:16;72.78;;;32.03;;
52618;SDS011;38513;53.234;6.568;2022-12-18T06:33:42;73.75;;;33.55;;
52618;SDS011;38513;53.234;6.568;2022-12-18T06:36:09;73.78;;;36.33;;
52618;SDS011;38513;53.234;6.568;2022-12-18T06:38:36;72.00;;;33.85;;
52618;SDS011;38513;53.234;6.568;2022-12-18T06:41:20;76.00;;;35.57;;
52618;SDS011;38513;53.234;6.568;2022-12-18T06:43:47;73.72;;;35.50;;
52618;SDS011;38513;53.234;6.568;2022-12-18T06:46:14;68.30;;;35.15;;
52618;SDS011;38513;53.234;6.568;2022-12-18T06:48:40;69.50;;;33.63;;
52618;SDS011;38513;53.234;6.568;2022-12-18T06:51:10;66.88;;;33.22;;
52618;SDS011;38513;53.234;6.568;2022-12-18T06:53:36;66.43;;;32.38;;
52618;SDS011;38513;53.234;6.568;2022-12-18T06:56:03;65.88;;;31.20;;
52618;SDS011;38513;53.234;6.568;2022-12-18T06:58:29;63.83;;;32.75;;
52618;SDS011;38513;53.234;6.568;2022-12-18T07:01:05;64.83;;;31.97;;
52618;SDS011;38513;53.234;6.568;2022-12-18T07:03:31;63.15;;;30.88;;
52618;SDS011;38513;53.234;6.568;2022-12-18T07:05:57;65.20;;;32.30;;
52618;SDS011;38513;53.234;6.568;2022-12-18T07:08:23;58.72;;;30.92;;
52618;SDS011;38513;53.234;6.568;2022-12-18T07:10:50;61.45;;;30.55;;
52618;SDS011;38513;53.234;6.568;2022-12-18T07:13:16;56.05;;;28.95;;
52618;SDS011;38513;53.234;6.568;2022-12-18T07:15:43;56.22;;;28.90;;
52618;SDS011;38513;53.234;6.568;2022-12-18T07:18:09;54.60;;;29.13;;
52618;SDS011;38513;53.234;6.568;2022-12-18T07:20:36;53.40;;;27.87;;
52618;SDS011;38513;53.234;6.568;2022-12-18T07:23:02;50.47;;;28.17;;
52618;SDS011;38513;53.234;6.568;2022-12-18T07:25:32;54.13;;;28.10;;
52618;SDS011;38513;53.234;6.568;2022-12-18T07:27:59;50.72;;;27.17;;
52618;SDS011;38513;53.234;6.568;2022-12-18T07:30:25;51.45;;;26.65;;
52618;SDS011;38513;53.234;6.568;2022-12-18T07:32:51;52.70;;;27.00;;
52618;SDS011;38513;53.234;6.568;2022-12-18T07:35:17;49.83;;;27.10;;
52618;SDS011;38513;53.234;6.568;2022-12-18T07:37:44;48.72;;;26.33;;
52618;SDS011;38513;53.234;6.568;2022-12-18T07:40:12;45.63;;;25.57;;
52618;SDS011;38513;53.234;6.568;2022-12-18T07:42:38;49.92;;;26.77;;
52618;SDS011;38513;53.234;6.568;2022-12-18T07:45:05;52.10;;;26.67;;
52618;SDS011;38513;53.234;6.568;2022-12-18T07:47:31;46.10;;;26.05;;
52618;SDS011;38513;53.234;6.568;2022-12-18T07:50:00;46.70;;;25.80;;
52618;SDS011;38513;53.234;6.568;2022-12-18T07:52:26;44.83;;;25.20;;
52618;SDS011;38513;53.234;6.568;2022-12-18T07:54:52;47.42;;;25.65;;
52618;SDS011;38513;53.234;6.568;2022-12-18T07:57:18;45.22;;;25.05;;
52618;SDS011;38513;53.234;6.568;2022-12-18T07:59:44;46.63;;;26.13;;
52618;SDS011;38513;53.234;6.568;2022-12-18T08:02:10;45.72;;;25.48;;
52618;SDS011;38513;53.234;6.568;2022-12-18T08:04:36;45.60;;;25.30;;
52618;SDS011;38513;53.234;6.568;2022-12-18T08:07:02;42.30;;;24.23;;
52618;SDS011;38513;53.234;6.568;2022-12-18T08:09:28;44.47;;;25.10;;
52618;SDS011;38513;53.234;6.568;2022-12-18T08:11:55;42.10;;;24.65;;
52618;SDS011;38513;53.234;6.568;2022-12-18T08:14:21;45.22;;;24.65;;
52618;SDS011;38513;53.234;6.568;2022-12-18T08:16:47;43.15;;;23.95;;
52618;SDS011;38513;53.234;6.568;2022-12-18T08:19:13;41.72;;;23.95;;
52618;SDS011;38513;53.234;6.568;2022-12-18T08:21:39;45.53;;;24.20;;
52618;SDS011;38513;53.234;6.568;2022-12-18T08:24:06;46.50;;;26.48;;
52618;SDS011;38513;53.234;6.568;2022-12-18T08:26:32;49.70;;;27.92;;
52618;SDS011;38513;53.234;6.568;2022-12-18T08:28:58;50.20;;;27.67;;
52618;SDS011;38513;53.234;6.568;2022-12-18T08:31:25;46.67;;;26.77;;
52618;SDS011;38513;53.234;6.568;2022-12-18T08:33:52;49.53;;;27.58;;
52618;SDS011;38513;53.234;6.568;2022-12-18T08:36:18;45.50;;;26.08;;
52618;SDS011;38513;53.234;6.568;2022-12-18T08:38:45;47.90;;;26.65;;
52618;SDS011;38513;53.234;6.568;2022-12-18T08:41:12;47.25;;;26.38;;
52618;SDS011;38513;53.234;6.568;2022-12-18T08:43:39;48.25;;;26.42;;
52618;SDS011;38513;53.234;6.568;2022-12-18T08:46:25;43.63;;;25.38;;
52618;SDS011;38513;53.234;6.568;2022-12-18T08:48:52;44.40;;;25.63;;
52618;SDS011;38513;53.234;6.568;2022-12-18T08:51:19;46.00;;;26.05;;
52618;SDS011;38513;53.234;6.568;2022-12-18T08:53:45;48.40;;;27.92;;
52618;SDS011;38513;53.234;6.568;2022-12-18T08:56:11;44.97;;;26.70;;
52618;SDS011;38513;53.234;6.568;2022-12-18T08:58:38;45.88;;;26.83;;
52618;SDS011;38513;53.234;6.568;2022-12-18T09:01:05;44.80;;;26.08;;
52618;SDS011;38513;53.234;6.568;2022-12-18T09:03:32;47.60;;;27.48;;
52618;SDS011;38513;53.234;6.568;2022-12-18T09:05:59;45.67;;;25.48;;
52618;SDS011;38513;53.234;6.568;2022-12-18T09:08:25;45.22;;;26.70;;
52618;SDS011;38513;53.234;6.568;2022-12-18T09:10:51;42.83;;;25.80;;
52618;SDS011;38513;53.234;6.568;2022-12-18T09:13:18;43.90;;;26.17;;
52618;SDS011;38513;53.234;6.568;2022-12-18T09:15:45;44.67;;;26.50;;
52618;SDS011;38513;53.234;6.568;2022-12-18T09:18:16;44.47;;;26.50;;
52618;SDS011;38513;53.234;6.568;2022-12-18T09:20:43;46.88;;;27.40;;
52618;SDS011;38513;53.234;6.568;2022-12-18T09:23:10;44.33;;;27.00;;
52618;SDS011;38513;53.234;6.568;2022-12-18T09:25:36;44.83;;;26.70;;
52618;SDS011;38513;53.234;6.568;2022-12-18T09:28:06;42.33;;;25.40;;
52618;SDS011;38513;53.234;6.568;2022-12-18T09:30:32;41.85;;;25.38;;
52618;SDS011;38513;53.234;6.568;2022-12-18T09:32:59;42.72;;;25.88;;
52618;SDS011;38513;53.234;6.568;2022-12-18T09:35:25;39.85;;;24.63;;
52618;SDS011;38513;53.234;6.568;2022-12-18T09:37:56;40.20;;;24.88;;
52618;SDS011;38513;53.234;6.568;2022-12-18T09:40:24;36.67;;;22.63;;
52618;SDS011;38513;53.234;6.568;2022-12-18T09:42:53;39.25;;;24.20;;
52618;SDS011;38513;53.234;6.568;2022-12-18T09:48:26;37.72;;;23.42;;
52618;SDS011;38513;53.234;6.568;2022-12-18T09:51:00;36.28;;;22.20;;
52618;SDS011;38513;53.234;6.568;2022-12-18T09:53:30;38.55;;;23.77;;
52618;SDS011;38513;53.234;6.568;2022-12-18T09:55:58;36.13;;;22.27;;
52618;SDS011;38513;53.234;6.568;2022-12-18T09:58:34;36.08;;;22.20;;
52618;SDS011;38513;53.234;6.568;2022-12-18T10:01:02;34.30;;;21.70;;
52618;SDS011;38513;53.234;6.568;2022-12-18T10:03:28;32.33;;;20.70;;
52618;SDS011;38513;53.234;6.568;2022-12-18T10:05:58;29.77;;;18.17;;
52618;SDS011;38513;53.234;6.568;2022-12-18T10:08:46;33.85;;;20.63;;
52618;SDS011;38513;53.234;6.568;2022-12-18T10:11:27;32.30;;;19.48;;
52618;SDS011;38513;53.234;6.568;2022-12-18T10:14:13;29.80;;;19.20;;
52618;SDS011;38513;53.234;6.568;2022-12-18T10:26:55;30.70;;;18.83;;
52618;SDS011;38513;53.234;6.568;2022-12-18T10:29:25;30.05;;;19.08;;
52618;SDS011;38513;53.234;6.568;2022-12-18T10:31:51;29.40;;;18.65;;
52618;SDS011;38513;53.234;6.568;2022-12-18T10:34:17;28.25;;;18.20;;
52618;SDS011;38513;53.234;6.568;2022-12-18T10:36:43;29.85;;;18.17;;
52618;SDS011;38513;53.234;6.568;2022-12-18T10:39:17;27.67;;;16.85;;
52618;SDS011;38513;53.234;6.568;2022-12-18T10:41:44;27.58;;;16.73;;
52618;SDS011;38513;53.234;6.568;2022-12-18T10:44:23;29.15;;;16.58;;
52618;SDS011;38513;53.234;6.568;2022-12-18T10:46:54;27.02;;;16.00;;
52618;SDS011;38513;53.234;6.568;2022-12-18T10:49:22;23.80;;;15.95;;
52618;SDS011;38513;53.234;6.568;2022-12-18T10:51:48;26.65;;;15.68;;
52618;SDS011;38513;53.234;6.568;2022-12-18T10:56:41;22.13;;;14.70;;
52618;SDS011;38513;53.234;6.568;2022-12-18T10:59:08;21.90;;;14.40;;
52618;SDS011;38513;53.234;6.568;2022-12-18T11:01:49;22.23;;;14.00;;
52618;SDS011;38513;53.234;6.568;2022-12-18T11:04:33;21.95;;;13.30;;
52618;SDS011;38513;53.234;6.568;2022-12-18T11:07:04;20.75;;;13.73;;
52618;SDS011;38513;53.234;6.568;2022-12-18T11:09:31;19.95;;;13.18;;
52618;SDS011;38513;53.234;6.568;2022-12-18T11:11:58;20.25;;;13.15;;
52618;SDS011;38513;53.234;6.568;2022-12-18T11:14:29;20.53;;;12.70;;
52618;SDS011;38513;53.234;6.568;2022-12-18T11:16:56;17.90;;;12.02;;
52618;SDS011;38513;53.234;6.568;2022-12-18T11:19:26;18.92;;;12.27;;
52618;SDS011;38513;53.234;6.568;2022-12-18T11:21:54;20.35;;;11.68;;
52618;SDS011;38513;53.234;6.568;2022-12-18T11:24:32;18.48;;;11.00;;
52618;SDS011;38513;53.234;6.568;2022-12-18T11:27:00;16.58;;;10.80;;
52618;SDS011;38513;53.234;6.568;2022-12-18T11:29:35;17.27;;;10.95;;
52618;SDS011;38513;53.234;6.568;2022-12-18T11:34:41;16.27;;;10.63;;
52618;SDS011;38513;53.234;6.568;2022-12-18T11:37:08;16.75;;;10.57;;
52618;SDS011;38513;53.234;6.568;2022-12-18T11:39:46;18.90;;;10.88;;
52618;SDS011;38513;53.234;6.568;2022-12-18T11:42:24;16.17;;;10.47;;
52618;SDS011;38513;53.234;6.568;2022-12-18T11:44:54;17.70;;;11.00;;
52618;SDS011;38513;53.234;6.568;2022-12-18T11:47:38;18.27;;;10.75;;
52618;SDS011;38513;53.234;6.568;2022-12-18T11:50:14;15.95;;;10.07;;
52618;SDS011;38513;53.234;6.568;2022-12-18T11:52:41;15.93;;;10.23;;
52618;SDS011;38513;53.234;6.568;2022-12-18T11:55:12;18.35;;;11.02;;
52618;SDS011;38513;53.234;6.568;2022-12-18T12:00:25;17.02;;;10.13;;
52618;SDS011;38513;53.234;6.568;2022-12-18T12:08:06;17.30;;;10.70;;
52618;SDS011;38513;53.234;6.568;2022-12-18T12:10:38;15.55;;;9.73;;
52618;SDS011;38513;53.234;6.568;2022-12-18T12:13:23;16.23;;;9.90;;
52618;SDS011;38513;53.234;6.568;2022-12-18T12:16:15;16.17;;;9.60;;
52618;SDS011;38513;53.234;6.568;2022-12-18T12:21:07;15.20;;;9.23;;
52618;SDS011;38513;53.234;6.568;2022-12-18T12:23:48;15.35;;;9.50;;
52618;SDS011;38513;53.234;6.568;2022-12-18T12:26:32;14.43;;;9.02;;
52618;SDS011;38513;53.234;6.568;2022-12-18T12:29:36;14.60;;;8.80;;
52618;SDS011;38513;53.234;6.568;2022-12-18T12:32:04;15.00;;;8.60;;
52618;SDS011;38513;53.234;6.568;2022-12-18T12:39:41;13.15;;;8.70;;
52618;SDS011;38513;53.234;6.568;2022-12-18T12:42:16;14.80;;;8.40;;
52618;SDS011;38513;53.234;6.568;2022-12-18T12:45:04;13.77;;;8.25;;
52618;SDS011;38513;53.234;6.568;2022-12-18T12:47:36;14.82;;;8.10;;
52618;SDS011;38513;53.234;6.568;2022-12-18T12:50:05;13.23;;;7.78;;
52618;SDS011;38513;53.234;6.568;2022-12-18T12:52:37;13.82;;;7.78;;
52618;SDS011;38513;53.234;6.568;2022-12-18T12:55:11;13.80;;;7.93;;
52618;SDS011;38513;53.234;6.568;2022-12-18T12:57:40;11.88;;;7.38;;
52618;SDS011;38513;53.234;6.568;2022-12-18T13:00:17;12.90;;;8.03;;
52618;SDS011;38513;53.234;6.568;2022-12-18T13:05:39;32.92;;;24.35;;
52618;SDS011;38513;53.234;6.568;2022-12-18T13:08:10;18.50;;;11.35;;
52618;SDS011;38513;53.234;6.568;2022-12-18T13:10:38;13.13;;;7.50;;
52618;SDS011;38513;53.234;6.568;2022-12-18T13:13:08;14.30;;;8.13;;
52618;SDS011;38513;53.234;6.568;2022-12-18T13:15:39;13.10;;;7.78;;
52618;SDS011;38513;53.234;6.568;2022-12-18T13:20:46;12.67;;;8.00;;
52618;SDS011;38513;53.234;6.568;2022-12-18T13:31:13;14.57;;;8.30;;
52618;SDS011;38513;53.234;6.568;2022-12-18T13:38:36;11.93;;;8.00;;
52618;SDS011;38513;53.234;6.568;2022-12-18T13:46:04;12.40;;;7.68;;
52618;SDS011;38513;53.234;6.568;2022-12-18T13:48:32;12.68;;;7.55;;
52618;SDS011;38513;53.234;6.568;2022-12-18T13:51:06;11.45;;;7.28;;
52618;SDS011;38513;53.234;6.568;2022-12-18T13:53:35;12.88;;;7.25;;
52618;SDS011;38513;53.234;6.568;2022-12-18T13:56:02;12.43;;;7.40;;
52618;SDS011;38513;53.234;6.568;2022-12-18T13:58:29;12.37;;;7.33;;
52618;SDS011;38513;53.234;6.568;2022-12-18T14:00:55;12.10;;;7.28;;
52618;SDS011;38513;53.234;6.568;2022-12-18T14:03:25;12.52;;;7.65;;
52618;SDS011;38513;53.234;6.568;2022-12-18T14:05:53;13.60;;;8.10;;
52618;SDS011;38513;53.234;6.568;2022-12-18T14:08:19;11.10;;;6.82;;
52618;SDS011;38513;53.234;6.568;2022-12-18T14:10:46;12.32;;;7.50;;
52618;SDS011;38513;53.234;6.568;2022-12-18T14:13:32;13.05;;;7.65;;
52618;SDS011;38513;53.234;6.568;2022-12-18T14:16:00;12.98;;;8.05;;
52618;SDS011;38513;53.234;6.568;2022-12-18T14:18:36;12.00;;;7.43;;
52618;SDS011;38513;53.234;6.568;2022-12-18T14:21:04;12.70;;;8.10;;
52618;SDS011;38513;53.234;6.568;2022-12-18T14:23:38;14.75;;;8.18;;
52618;SDS011;38513;53.234;6.568;2022-12-18T14:28:46;13.60;;;8.40;;
52618;SDS011;38513;53.234;6.568;2022-12-18T14:31:19;12.75;;;8.30;;
52618;SDS011;38513;53.234;6.568;2022-12-18T14:33:45;13.73;;;8.07;;
52618;SDS011;38513;53.234;6.568;2022-12-18T14:36:14;13.82;;;8.30;;
52618;SDS011;38513;53.234;6.568;2022-12-18T14:38:41;13.15;;;8.23;;
52618;SDS011;38513;53.234;6.568;2022-12-18T14:41:13;13.88;;;8.68;;
52618;SDS011;38513;53.234;6.568;2022-12-18T14:43:41;15.17;;;8.90;;
52618;SDS011;38513;53.234;6.568;2022-12-18T14:48:53;14.27;;;9.30;;
52618;SDS011;38513;53.234;6.568;2022-12-18T14:51:29;14.43;;;9.60;;
52618;SDS011;38513;53.234;6.568;2022-12-18T14:53:59;15.90;;;9.18;;
52618;SDS011;38513;53.234;6.568;2022-12-18T14:56:27;15.32;;;10.20;;
52618;SDS011;38513;53.234;6.568;2022-12-18T14:59:01;18.10;;;10.70;;
52618;SDS011;38513;53.234;6.568;2022-12-18T15:01:38;19.17;;;11.40;;
52618;SDS011;38513;53.234;6.568;2022-12-18T15:04:05;16.15;;;10.23;;
52618;SDS011;38513;53.234;6.568;2022-12-18T15:06:45;14.13;;;8.68;;
52618;SDS011;38513;53.234;6.568;2022-12-18T15:09:22;13.75;;;8.57;;
52618;SDS011;38513;53.234;6.568;2022-12-18T15:11:48;14.68;;;9.00;;
52618;SDS011;38513;53.234;6.568;2022-12-18T15:14:22;14.73;;;9.32;;
52618;SDS011;38513;53.234;6.568;2022-12-18T15:16:52;15.80;;;9.18;;
52618;SDS011;38513;53.234;6.568;2022-12-18T15:19:20;15.68;;;10.57;;
52618;SDS011;38513;53.234;6.568;2022-12-18T15:21:46;14.48;;;9.30;;
52618;SDS011;38513;53.234;6.568;2022-12-18T15:24:16;16.15;;;9.45;;
52618;SDS011;38513;53.234;6.568;2022-12-18T15:26:43;16.65;;;10.20;;
52618;SDS011;38513;53.234;6.568;2022-12-18T15:29:20;16.45;;;10.30;;
52618;SDS011;38513;53.234;6.568;2022-12-18T15:32:15;17.27;;;11.25;;
52618;SDS011;38513;53.234;6.568;2022-12-18T15:34:33;17.45;;;11.20;;
52618;SDS011;38513;53.234;6.568;2022-12-18T15:36:59;17.63;;;11.50;;
52618;SDS011;38513;53.234;6.568;2022-12-18T15:39:25;17.35;;;11.40;;
52618;SDS011;38513;53.234;6.568;2022-12-18T15:41:51;19.35;;;12.30;;
52618;SDS011;38513;53.234;6.568;2022-12-18T15:44:36;18.80;;;12.40;;
52618;SDS011;38513;53.234;6.568;2022-12-18T15:47:02;18.30;;;12.10;;
52618;SDS011;38513;53.234;6.568;2022-12-18T15:49:29;19.15;;;12.20;;
52618;SDS011;38513;53.234;6.568;2022-12-18T15:51:59;20.03;;;12.37;;
52618;SDS011;38513;53.234;6.568;2022-12-18T15:54:25;18.50;;;12.35;;
52618;SDS011;38513;53.234;6.568;2022-12-18T15:57:11;17.17;;;11.52;;
52618;SDS011;38513;53.234;6.568;2022-12-18T15:59:54;18.23;;;12.40;;
52618;SDS011;38513;53.234;6.568;2022-12-18T16:02:23;18.00;;;12.33;;